METAR Data
IDs: Format: Raw Decoded Include TAF

Data at: 2210 UTC 10 May 2021

KEIK 102155Z AUTO 31014G20KT 5SM SCT014 OVC021 04/03 A3003 RMK AO2 T00440029 PWINO
KEIK 102135Z AUTO 32011G14KT 10SM SCT009 OVC023 05/03 A3003 RMK AO2 T00520033 PWINO
KEIK 102115Z AUTO 31009KT 10SM OVC021 07/05 A3002 RMK AO2 T00700046 PWINO
KEIK 102055Z AUTO 33007KT 10SM SCT014 OVC022 07/05 A3002 RMK AO2 LTG DSNT W T00700046 PWINO
KEIK 102035Z AUTO 34007KT 10SM BKN014 OVC022 07/05 A3002 RMK AO2 T00730047 PWINO
KEIK 102015Z AUTO 01010KT 10SM BKN014 OVC021 08/05 A3001 RMK AO2 T00760049 PWINO
KEIK 101955Z AUTO 02008KT 10SM BKN014 BKN020 OVC027 08/05 A3002 RMK AO2 T00800052 PWINO
KEIK 101935Z AUTO 02007KT 10SM SCT012 SCT020 OVC029 08/05 A3002 RMK AO2 T00790050 PWINO
KEIK 101915Z AUTO 01004KT 10SM SCT022 OVC031 08/05 A3002 RMK AO2 T00800046 PWINO
KEIK 101855Z AUTO 02004KT 10SM SCT016 OVC031 08/04 A3003 RMK AO2 T00750042 PWINO
KEIK 101835Z AUTO 00000KT 10SM SCT018 OVC033 07/04 A3003 RMK AO2 T00720040 PWINO
KEIK 101815Z AUTO 36003KT 10SM SCT014 BKN031 OVC038 07/04 A3004 RMK AO2 T00700039 PWINO
KEIK 101755Z AUTO 00000KT 10SM SCT012 OVC038 07/04 A3003 RMK AO2 LTG DSNT W T00700040 10070 20049 PWINO
KEIK 101735Z AUTO 00000KT 10SM BKN032 OVC040 07/04 A3003 RMK AO2 T00660041 PWINO
KEIK 101715Z AUTO 00000KT 10SM SCT010 BKN030 OVC034 06/04 A3004 RMK AO2 T00630042 PWINO
KEIK 101655Z AUTO 00000KT 7SM SCT010 SCT015 OVC028 06/04 A3005 RMK AO2 T00560035 PWINO
KEIK 101635Z AUTO 00000KT 5SM SCT019 OVC024 05/04 A3005 RMK AO2 T00540035 PWINO
KEIK 101615Z AUTO 00000KT 7SM BKN020 OVC025 05/04 A3005 RMK AO2 T00520035 PWINO
KEIK 101555Z AUTO 00000KT 5SM SCT009 SCT016 OVC023 05/03 A3005 RMK AO2 T00490032 PWINO
KEIK 101535Z AUTO 00000KT 5SM SCT009 SCT016 OVC021 05/04 A3005 RMK AO2 T00520038 PWINO
KEIK 101515Z AUTO 32004KT 5SM SCT010 BKN016 OVC022 05/04 A3006 RMK AO2 T00520038 PWINO
KEIK 101455Z AUTO 34005KT 7SM BKN011 BKN014 OVC024 05/04 A3005 RMK AO2 T00520038 PWINO
KEIK 101435Z AUTO 36005KT 10SM BKN009 BKN014 OVC024 05/04 A3006 RMK AO2 T00530038 PWINO
KEIK 101415Z AUTO 36006KT 10SM BKN009 OVC014 05/04 A3005 RMK AO2 T00510037 PWINO
KEIK 101355Z AUTO 36008KT 10SM BKN009 OVC013 05/04 A3005 RMK AO2 T00520040 PWINO
KEIK 101335Z AUTO 36006KT 10SM OVC007 05/04 A3005 RMK AO2 T00520041 PWINO
KEIK 101315Z AUTO 36007KT 10SM OVC007 05/04 A3005 RMK AO2 T00500040 PWINO
KEIK 101255Z AUTO 34006KT 10SM BKN007 BKN013 OVC034 05/04 A3006 RMK AO2 T00500040 PWINO
KEIK 101235Z AUTO 36005KT 10SM SCT007 SCT012 OVC034 05/04 A3005 RMK AO2 T00500040 PWINO
KEIK 101215Z AUTO 35007KT 10SM SCT007 BKN012 OVC034 05/04 A3005 RMK AO2 T00500040 PWINO
KEIK 101155Z AUTO 34007KT 10SM BKN007 OVC034 05/04 A3005 RMK AO2 T00500040 10070 20050 PWINO
KEIK 101135Z AUTO 35005KT 10SM BKN007 OVC036 05/04 A3005 RMK AO2 T00500040
KEIK 101115Z AUTO 36008KT 10SM SCT009 SCT013 OVC036 05/04 A3005 RMK AO2 T00500039
KEIK 101055Z AUTO 35008KT 10SM -DZ SCT005 BKN009 OVC036 05/04 A3006 RMK AO2 T00520041
KEIK 101035Z AUTO 34005KT 10SM -RA BKN008 BKN039 OVC055 06/04 A3007 RMK AO2 T00550042
KEIK 101015Z AUTO 36005KT 10SM RA SCT008 OVC039 06/04 A3007 RMK AO2 LTG DSNT SE T00560041
KEIK 100955Z AUTO 01004KT 10SM RA BKN044 OVC060 06/05 A3007 RMK AO2 T00600045
KEIK 100935Z AUTO 36004KT 10SM -DZ OVC048 06/05 A3007 RMK AO2 T00630047
KEIK 100915Z AUTO 35004KT 10SM -RA OVC050 07/05 A3007 RMK AO2 T00650045
KEIK 100855Z AUTO 01003KT 10SM OVC050 07/04 A3007 RMK AO2 T00650043
KEIK 100835Z AUTO 03005KT 10SM -RA OVC055 07/04 A3007 RMK AO2 T00660041
KEIK 100815Z AUTO 02004KT 10SM -DZ OVC055 07/04 A3007 RMK AO2 T00670040
KEIK 100755Z AUTO 04005KT 10SM -RA OVC065 07/04 A3008 RMK AO2 T00660041
KEIK 100735Z AUTO 02003KT 10SM RA SCT039 OVC065 07/05 A3008 RMK AO2 T00680048
KEIK 100715Z AUTO 01004KT 10SM -RA BKN039 BKN047 OVC065 07/05 A3008 RMK AO2 LTG DSNT SE T00700049
KEIK 100655Z AUTO 02003KT 10SM -DZ SCT050 SCT065 OVC070 07/05 A3009 RMK AO2 T00700046
KEIK 100635Z AUTO 01004KT 10SM BKN050 BKN065 OVC075 07/04 A3009 RMK AO2 LTG DSNT SE T00680042
KEIK 100615Z AUTO 03003KT 10SM OVC075 07/04 A3008 RMK AO2 T00680039
KEIK 100555Z AUTO 02005KT 10SM SCT075 OVC095 07/03 A3008 RMK AO2 T00720028 10095 20067 401120044
KEIK 100535Z AUTO 32004KT 10SM SCT085 OVC095 07/03 A3008 RMK AO2 T00670031
KEIK 100515Z AUTO 28003KT 10SM BKN085 BKN100 08/02 A3008 RMK AO2 T00750020
KEIK 100455Z AUTO 20009KT 10SM SCT050 SCT075 OVC080 08/02 A3008 RMK AO2 T00750023
KEIK 100435Z AUTO 18009KT 10SM OVC050 08/02 A3008 RMK AO2 T00750024
KEIK 100415Z AUTO 18010KT 10SM -DZ OVC050 07/03 A3008 RMK AO2 T00740030
KEIK 100355Z AUTO 18006KT 10SM -RA BKN048 BKN055 OVC075 08/04 A3009 RMK AO2 T00750035
KEIK 100335Z AUTO 16006KT 10SM -DZ SCT046 OVC065 08/04 A3008 RMK AO2 T00750039
KEIK 100315Z AUTO 15011KT 10SM -RA SCT043 SCT050 OVC065 08/03 A3008 RMK AO2 T00790031
KEIK 100255Z AUTO 00000KT 10SM -DZ BKN041 OVC060 08/02 A3008 RMK AO2 T00800020
KEIK 100235Z AUTO 00000KT 10SM RA BKN033 OVC039 08/02 A3008 RMK AO2 T00780023
KEIK 100215Z AUTO 17004KT 10SM -RA BKN033 OVC040 08/02 A3008 RMK AO2 T00800022
KEIK 100155Z AUTO 16005KT 10SM RA SCT032 OVC040 08/02 A3007 RMK AO2 T00820021
KEIK 100135Z AUTO 18004KT 10SM -RA BKN032 BKN042 OVC070 09/02 A3007 RMK AO2 T00870016
KEIK 100115Z AUTO 19004KT 10SM SCT034 BKN060 OVC070 09/01 A3005 RMK AO2 T00880011
KEIK 100055Z AUTO 16007KT 10SM SCT036 SCT060 OVC070 09/01 A3005 RMK AO2 T00880011
KEIK 100035Z AUTO 15008KT 10SM OVC070 09/01 A3005 RMK AO2 T00900011
KEIK 100015Z AUTO 16011G16KT 10SM SCT034 SCT040 OVC070 09/01 A3005 RMK AO2 T00930014
KEIK 092355Z AUTO 12010KT 10SM SCT034 BKN055 OVC070 10/02 A3005 RMK AO2 T00960019 10112 20090 PWINO
KEIK 092335Z AUTO 14012G16KT 10SM SCT034 BKN055 OVC070 10/02 A3005 RMK AO2 T00950021 PWINO
KEIK 092315Z AUTO 14012G17KT 10SM SCT034 BKN048 BKN055 10/02 A3005 RMK AO2 T00950019 PWINO
KEIK 092255Z AUTO 11014G17KT 10SM BKN037 BKN043 BKN050 10/02 A3004 RMK AO2 T01010020 PWINO
KEIK 092235Z AUTO 13009G14KT 10SM OVC038 09/01 A3004 RMK AO2 T00920012 PWINO
KEIK 092215Z AUTO 12009KT 10SM OVC038 09/01 A3005 RMK AO2 T00900006 PWINO
KEIK 092155Z AUTO 13007KT 10SM OVC038 10/01 A3005 RMK AO2 T00950005 PWINO
KEIK 092135Z AUTO 16004KT 10SM OVC040 10/01 A3005 RMK AO2 T00950006 PWINO
KEIK 092115Z AUTO 15010G15KT 10SM SCT032 BKN040 BKN050 10/01 A3005 RMK AO2 T00980008 PWINO
KEIK 092055Z AUTO 14009KT 10SM SCT035 SCT049 10/01 A3005 RMK AO2 T01040011 PWINO
KEIK 092035Z AUTO 14010G18KT 10SM BKN037 BKN043 BKN095 10/01 A3005 RMK AO2 T01000014 PWINO
KEIK 092015Z AUTO 14011KT 10SM SCT031 BKN039 OVC045 10/02 A3006 RMK AO2 T00980015 PWINO
KEIK 091955Z AUTO 15009G16KT 10SM SCT035 OVC041 10/01 A3006 RMK AO2 T00960007 PWINO
KEIK 091935Z AUTO 14010G17KT 10SM OVC043 10/01 A3007 RMK AO2 T00990005 PWINO
KEIK 091915Z AUTO 13010G17KT 10SM BKN045 10/00 A3007 RMK AO2 T01030000 PWINO
KEIK 091855Z AUTO 14010KT 110V170 10SM SCT045 BKN120 11/00 A3007 RMK AO2 T01120002 PWINO
KEIK 091835Z AUTO 16008KT 10SM SCT041 SCT047 BKN120 10/00 A3008 RMK AO2 T01021002 PWINO
KEIK 091815Z AUTO 10SM SCT041 10/00 A3008 RMK AO2 T00971005 PWINO
KEIK 091755Z AUTO 14009KT 10SM SCT039 10/00 A3009 RMK AO2 T01021002 10102 20046 PWINO
KEIK 091735Z AUTO 15007KT 100V190 10SM CLR 09/M01 A3009 RMK AO2 T00911009 PWINO
KEIK 091715Z AUTO 12008KT 7SM CLR 09/00 A3010 RMK AO2 T00930002 PWINO
KEIK 091655Z AUTO 17005KT 10SM SCT036 SCT047 SCT095 09/00 A3009 RMK AO2 T00881001 PWINO
KEIK 091635Z AUTO 16006KT 10SM SCT036 BKN047 OVC090 08/00 A3011 RMK AO2 T00820003 PWINO
KEIK 091615Z AUTO 16007KT 10SM BKN047 07/00 A3011 RMK AO2 T00731004 PWINO
KEIK 091555Z AUTO 18003KT 10SM OVC047 08/00 A3011 RMK AO2 T00760002 PWINO
KEIK 091535Z AUTO 19007KT 10SM OVC047 07/01 A3011 RMK AO2 T00700010 PWINO
KEIK 091515Z AUTO 18005KT 10SM OVC045 07/02 A3012 RMK AO2 T00650018 PWINO
KEIK 091455Z AUTO 17005KT 10SM OVC045 06/02 A3011 RMK AO2 T00600019 PWINO
KEIK 091435Z AUTO 20005KT 10SM OVC045 06/03 A3011 RMK AO2 T00560025 PWINO
KEIK 091415Z AUTO 21005KT 10SM OVC045 05/02 A3011 RMK AO2 T00520023 PWINO
KEIK 091355Z AUTO 23005KT 10SM OVC047 05/03 A3012 RMK AO2 T00500025 PWINO
KEIK 091335Z AUTO 21005KT 10SM OVC047 05/03 A3011 RMK AO2 T00490027 PWINO
KEIK 091315Z AUTO 22004KT 10SM OVC047 05/02 A3011 RMK AO2 T00460024 PWINO
KEIK 091255Z AUTO 22005KT 10SM OVC047 05/03 A3010 RMK AO2 T00460025 PWINO
KEIK 091235Z AUTO 20004KT 10SM OVC047 05/02 A3010 RMK AO2 T00460023 PWINO
KEIK 091215Z AUTO 21003KT 10SM SCT022 SCT027 OVC045 05/02 A3009 RMK AO2 T00470023 PWINO
KEIK 091155Z AUTO 00000KT 10SM OVC045 05/02 A3009 RMK AO2 T00500020 10079 20044 PWINO
KEIK 091135Z AUTO 00000KT 10SM OVC043 05/01 A3009 RMK AO2 T00500012 PWINO
KEIK 091115Z AUTO 00000KT 10SM SCT030 SCT035 OVC043 05/02 A3008 RMK AO2 T00500015 PWINO
KEIK 091055Z AUTO 00000KT 10SM SCT028 OVC035 05/02 A3008 RMK AO2 T00480015 PWINO
KEIK 091035Z AUTO 01003KT 10SM OVC035 05/02 A3008 RMK AO2 T00500017 PWINO
KEIK 091015Z AUTO 00000KT 10SM OVC035 05/02 A3008 RMK AO2 T00500019 PWINO